Terminal Aerodrome Forecast
Issued by NWS

Home | Current Version | Previous Version | Text Only | Print | Product List | Glossary On
Versions: 1 2 3 4 5 6 7 8 9 10 11 12 13 14 15 16
000
FTUS45 KRIW 282300
TAFCPR
TAF
KCPR 282324Z 2900/2924 36007KT P6SM FEW080
     FM290600 24008KT P6SM SCT120
     FM291400 01009KT P6SM SCT080 BKN120
     FM292000 VRB10G15KT P6SM VCTS SCT080CB BKN120=

USA.gov is the U.S. government's official web portal to all federal, state and local government web resources and services.